Terminal Aerodrome Forecast
Issued by NWS

Home | Current Version | Previous Version | Text Only | Print | Product List | Glossary On
Versions: 1 2 3 4 5 6 7 8 9 10 11 12 13 14 15 16 17 18 19 20 21 22 23 24 25 26 27 28
000
FTUS43 KFGF 220520
TAFDVL
TAF
KDVL 220520Z 2206/2306 28013G21KT P6SM SCT090
     FM221200 25010KT P6SM SKC
     FM221600 22013KT P6SM SCT250
     FM221800 22015G23KT P6SM BKN110
     FM230300 24015G25KT P6SM SCT090=

USA.gov is the U.S. government's official web portal to all federal, state and local government web resources and services.